sensor_id;sensor_type;location;lat;lon;timestamp;pressure;altitude;pressure_sealevel;temperature;humidity
54816;BME280;40715;55.752;37.884;2022-09-21T00:01:18;98978.53;;;12.77;67.66
54816;BME280;40715;55.752;37.884;2022-09-21T00:03:46;98970.59;;;12.77;67.65
54816;BME280;40715;55.752;37.884;2022-09-21T00:06:16;98970.59;;;12.77;67.44
54816;BME280;40715;55.752;37.884;2022-09-21T00:08:45;98971.25;;;12.82;67.43
54816;BME280;40715;55.752;37.884;2022-09-21T00:11:13;98960.94;;;12.76;67.39
54816;BME280;40715;55.752;37.884;2022-09-21T00:13:40;98967.91;;;12.78;67.46
54816;BME280;40715;55.752;37.884;2022-09-21T00:16:08;98929.25;;;12.54;67.60
54816;BME280;40715;55.752;37.884;2022-09-21T00:18:36;98973.09;;;12.80;67.70
54816;BME280;40715;55.752;37.884;2022-09-21T00:21:11;98979.25;;;12.81;67.83
54816;BME280;40715;55.752;37.884;2022-09-21T00:23:39;98967.91;;;12.78;67.80
54816;BME280;40715;55.752;37.884;2022-09-21T00:28:38;98983.81;;;12.77;67.77
54816;BME280;40715;55.752;37.884;2022-09-21T00:31:11;98967.16;;;12.75;67.68
54816;BME280;40715;55.752;37.884;2022-09-21T00:33:39;98979.59;;;12.73;67.56
54816;BME280;40715;55.752;37.884;2022-09-21T00:36:10;98972.56;;;12.72;67.93
54816;BME280;40715;55.752;37.884;2022-09-21T00:38:38;98974.53;;;12.67;67.65
54816;BME280;40715;55.752;37.884;2022-09-21T00:41:07;98981.47;;;12.69;67.70
54816;BME280;40715;55.752;37.884;2022-09-21T00:43:46;98983.19;;;12.70;67.87
54816;BME280;40715;55.752;37.884;2022-09-21T00:46:26;98986.69;;;12.71;67.76
54816;BME280;40715;55.752;37.884;2022-09-21T00:48:56;98986.88;;;12.66;67.68
54816;BME280;40715;55.752;37.884;2022-09-21T00:51:24;98978.19;;;12.64;67.68
54816;BME280;40715;55.752;37.884;2022-09-21T00:53:56;98964.41;;;12.56;67.95
54816;BME280;40715;55.752;37.884;2022-09-21T00:56:25;98971.94;;;12.65;68.06
54816;BME280;40715;55.752;37.884;2022-09-21T00:58:53;98971.94;;;12.65;67.94
54816;BME280;40715;55.752;37.884;2022-09-21T01:01:20;98976.13;;;12.71;68.05
54816;BME280;40715;55.752;37.884;2022-09-21T01:03:49;98977.72;;;12.75;68.28
54816;BME280;40715;55.752;37.884;2022-09-21T01:06:18;98969.66;;;12.78;68.26
54816;BME280;40715;55.752;37.884;2022-09-21T01:08:49;98968.53;;;12.84;68.28
54816;BME280;40715;55.752;37.884;2022-09-21T01:20:07;98973.19;;;12.99;68.10
54816;BME280;40715;55.752;37.884;2022-09-21T01:28:13;98974.50;;;13.09;68.01
54816;BME280;40715;55.752;37.884;2022-09-21T01:30:48;98974.41;;;13.12;68.11
54816;BME280;40715;55.752;37.884;2022-09-21T01:33:41;98978.66;;;13.15;68.12
54816;BME280;40715;55.752;37.884;2022-09-21T01:36:15;98979.34;;;13.20;68.03
54816;BME280;40715;55.752;37.884;2022-09-21T01:38:47;98972.19;;;13.22;67.88
54816;BME280;40715;55.752;37.884;2022-09-21T01:41:21;98970.41;;;13.23;67.90
54816;BME280;40715;55.752;37.884;2022-09-21T01:44:03;98966.66;;;13.28;67.92
54816;BME280;40715;55.752;37.884;2022-09-21T01:46:35;98972.84;;;13.27;67.70
54816;BME280;40715;55.752;37.884;2022-09-21T01:49:11;98977.22;;;13.28;67.79
54816;BME280;40715;55.752;37.884;2022-09-21T01:51:43;98977.28;;;13.27;67.92
54816;BME280;40715;55.752;37.884;2022-09-21T01:54:18;98983.50;;;13.26;67.74
54816;BME280;40715;55.752;37.884;2022-09-21T01:56:57;98969.53;;;13.22;67.64
54816;BME280;40715;55.752;37.884;2022-09-21T01:59:45;98978.28;;;13.24;67.46
54816;BME280;40715;55.752;37.884;2022-09-21T02:02:35;98982.59;;;13.27;67.59
54816;BME280;40715;55.752;37.884;2022-09-21T02:05:04;98980.78;;;13.27;67.47
54816;BME280;40715;55.752;37.884;2022-09-21T02:07:33;98992.97;;;13.32;67.36
54816;BME280;40715;55.752;37.884;2022-09-21T02:10:01;98984.19;;;13.31;67.40
54816;BME280;40715;55.752;37.884;2022-09-21T02:12:29;98972.00;;;13.27;67.30
54816;BME280;40715;55.752;37.884;2022-09-21T02:14:59;98983.13;;;13.35;67.40
54816;BME280;40715;55.752;37.884;2022-09-21T02:20:51;98991.66;;;13.42;67.21
54816;BME280;40715;55.752;37.884;2022-09-21T02:23:34;98954.88;;;13.15;67.22
54816;BME280;40715;55.752;37.884;2022-09-21T02:26:08;98994.50;;;13.37;67.33
54816;BME280;40715;55.752;37.884;2022-09-21T02:28:42;98990.94;;;13.38;67.20
54816;BME280;40715;55.752;37.884;2022-09-21T02:34:13;98992.50;;;13.42;66.95
54816;BME280;40715;55.752;37.884;2022-09-21T02:36:49;98998.06;;;13.36;66.84
54816;BME280;40715;55.752;37.884;2022-09-21T02:39:21;98988.53;;;13.32;67.13
54816;BME280;40715;55.752;37.884;2022-09-21T02:42:04;98987.56;;;13.35;67.00
54816;BME280;40715;55.752;37.884;2022-09-21T02:44:46;98995.22;;;13.41;67.03
54816;BME280;40715;55.752;37.884;2022-09-21T02:47:32;98997.75;;;13.44;66.92
54816;BME280;40715;55.752;37.884;2022-09-21T02:50:06;98997.78;;;13.42;66.94
54816;BME280;40715;55.752;37.884;2022-09-21T02:52:37;98997.63;;;13.47;67.07
54816;BME280;40715;55.752;37.884;2022-09-21T02:55:07;98991.66;;;13.42;66.94
54816;BME280;40715;55.752;37.884;2022-09-21T02:57:37;98997.34;;;13.53;66.81
54816;BME280;40715;55.752;37.884;2022-09-21T03:00:05;99003.28;;;13.58;66.91
54816;BME280;40715;55.752;37.884;2022-09-21T03:02:41;98999.59;;;13.62;67.08
54816;BME280;40715;55.752;37.884;2022-09-21T03:05:09;98984.56;;;13.63;67.05
54816;BME280;40715;55.752;37.884;2022-09-21T03:07:36;98975.81;;;13.61;66.47
54816;BME280;40715;55.752;37.884;2022-09-21T03:10:04;98950.69;;;13.51;66.72
54816;BME280;40715;55.752;37.884;2022-09-21T03:12:34;98976.97;;;13.74;66.56
54816;BME280;40715;55.752;37.884;2022-09-21T03:15:02;98994.97;;;13.87;66.31
54816;BME280;40715;55.752;37.884;2022-09-21T03:17:30;98985.22;;;13.87;66.21
54816;BME280;40715;55.752;37.884;2022-09-21T03:19:57;98991.88;;;13.96;66.01
54816;BME280;40715;55.752;37.884;2022-09-21T03:22:24;98994.22;;;14.02;66.00
54816;BME280;40715;55.752;37.884;2022-09-21T03:24:51;98994.88;;;14.07;65.69
54816;BME280;40715;55.752;37.884;2022-09-21T03:27:23;98984.38;;;14.06;65.58
54816;BME280;40715;55.752;37.884;2022-09-21T03:29:50;98992.81;;;14.14;65.50
54816;BME280;40715;55.752;37.884;2022-09-21T03:32:16;98995.09;;;14.22;65.40
54816;BME280;40715;55.752;37.884;2022-09-21T03:34:43;98995.66;;;14.28;65.34
54816;BME280;40715;55.752;37.884;2022-09-21T03:37:10;98994.38;;;14.37;65.32
54816;BME280;40715;55.752;37.884;2022-09-21T03:39:37;98992.41;;;14.41;65.37
54816;BME280;40715;55.752;37.884;2022-09-21T03:42:04;98992.06;;;14.48;65.29
54816;BME280;40715;55.752;37.884;2022-09-21T03:44:31;98994.25;;;14.58;65.03
54816;BME280;40715;55.752;37.884;2022-09-21T03:46:58;98991.13;;;14.69;64.60
54816;BME280;40715;55.752;37.884;2022-09-21T03:49:25;98990.72;;;14.76;64.57
54816;BME280;40715;55.752;37.884;2022-09-21T03:51:52;98980.59;;;14.84;64.17
54816;BME280;40715;55.752;37.884;2022-09-21T03:54:19;98980.91;;;14.96;63.89
54816;BME280;40715;55.752;37.884;2022-09-21T03:56:46;98982.97;;;15.08;63.57
54816;BME280;40715;55.752;37.884;2022-09-21T03:59:13;98986.22;;;15.13;63.42
54816;BME280;40715;55.752;37.884;2022-09-21T04:01:40;98982.72;;;15.13;63.39
54816;BME280;40715;55.752;37.884;2022-09-21T04:04:08;98978.13;;;15.16;63.26
54816;BME280;40715;55.752;37.884;2022-09-21T04:06:36;98997.84;;;15.28;62.90
54816;BME280;40715;55.752;37.884;2022-09-21T04:09:03;98985.91;;;15.37;62.41
54816;BME280;40715;55.752;37.884;2022-09-21T04:11:30;98990.94;;;15.42;62.42
54816;BME280;40715;55.752;37.884;2022-09-21T04:13:58;98990.31;;;15.54;61.78
54816;BME280;40715;55.752;37.884;2022-09-21T04:16:26;98994.91;;;15.68;61.44
54816;BME280;40715;55.752;37.884;2022-09-21T04:18:53;98986.84;;;15.69;60.92
54816;BME280;40715;55.752;37.884;2022-09-21T04:21:20;98996.69;;;15.85;60.34
54816;BME280;40715;55.752;37.884;2022-09-21T04:23:48;98998.84;;;15.94;59.69
54816;BME280;40715;55.752;37.884;2022-09-21T04:26:25;98999.72;;;15.95;59.78
54816;BME280;40715;55.752;37.884;2022-09-21T04:28:53;98993.84;;;15.88;59.63
54816;BME280;40715;55.752;37.884;2022-09-21T04:31:21;98998.25;;;15.89;59.42
54816;BME280;40715;55.752;37.884;2022-09-21T04:33:54;98987.25;;;15.79;59.49
54816;BME280;40715;55.752;37.884;2022-09-21T04:36:23;98990.50;;;15.84;59.36
54816;BME280;40715;55.752;37.884;2022-09-21T04:38:50;98988.94;;;15.80;59.40
54816;BME280;40715;55.752;37.884;2022-09-21T04:41:18;98997.72;;;15.65;59.38
54816;BME280;40715;55.752;37.884;2022-09-21T04:43:47;98998.41;;;15.68;59.34
54816;BME280;40715;55.752;37.884;2022-09-21T04:46:16;98980.00;;;15.65;59.44
54816;BME280;40715;55.752;37.884;2022-09-21T04:48:43;98987.25;;;15.62;59.35
54816;BME280;40715;55.752;37.884;2022-09-21T04:51:11;98979.69;;;15.54;59.50
54816;BME280;40715;55.752;37.884;2022-09-21T04:53:39;98998.25;;;15.71;59.49
54816;BME280;40715;55.752;37.884;2022-09-21T04:56:09;99005.78;;;15.97;59.16
54816;BME280;40715;55.752;37.884;2022-09-21T04:58:36;98998.44;;;16.18;58.72
54816;BME280;40715;55.752;37.884;2022-09-21T05:01:03;99001.53;;;16.42;58.12
54816;BME280;40715;55.752;37.884;2022-09-21T05:03:32;99000.38;;;16.62;57.52
54816;BME280;40715;55.752;37.884;2022-09-21T05:05:59;99004.66;;;16.81;56.79
54816;BME280;40715;55.752;37.884;2022-09-21T05:08:26;98992.28;;;16.96;56.44
54816;BME280;40715;55.752;37.884;2022-09-21T05:11:16;99010.81;;;17.28;56.01
54816;BME280;40715;55.752;37.884;2022-09-21T05:13:47;99018.84;;;17.56;55.48
54816;BME280;40715;55.752;37.884;2022-09-21T05:16:14;99019.34;;;17.77;54.94
54816;BME280;40715;55.752;37.884;2022-09-21T05:18:42;99016.41;;;17.97;54.32
54816;BME280;40715;55.752;37.884;2022-09-21T05:21:13;99025.06;;;18.15;53.82
54816;BME280;40715;55.752;37.884;2022-09-21T05:23:40;99038.56;;;18.40;53.48
54816;BME280;40715;55.752;37.884;2022-09-21T05:26:07;99029.84;;;18.66;52.82
54816;BME280;40715;55.752;37.884;2022-09-21T05:28:34;99030.63;;;19.08;52.40
54816;BME280;40715;55.752;37.884;2022-09-21T05:33:51;99022.06;;;20.57;50.70
54816;BME280;40715;55.752;37.884;2022-09-21T05:36:40;99019.25;;;22.01;49.09
54816;BME280;40715;55.752;37.884;2022-09-21T05:39:11;99021.41;;;23.29;46.56
54816;BME280;40715;55.752;37.884;2022-09-21T05:41:38;99016.47;;;24.38;44.00
54816;BME280;40715;55.752;37.884;2022-09-21T05:44:06;99015.19;;;25.12;42.00
54816;BME280;40715;55.752;37.884;2022-09-21T05:58:07;99016.03;;;24.23;41.94
54816;BME280;40715;55.752;37.884;2022-09-21T06:00:56;99014.16;;;24.64;40.75
54816;BME280;40715;55.752;37.884;2022-09-21T06:03:31;99014.28;;;25.70;39.55
54816;BME280;40715;55.752;37.884;2022-09-21T06:05:58;99026.59;;;26.30;37.44
54816;BME280;40715;55.752;37.884;2022-09-21T06:08:25;99016.34;;;26.79;36.22
54816;BME280;40715;55.752;37.884;2022-09-21T06:10:53;99021.84;;;28.20;34.78
54816;BME280;40715;55.752;37.884;2022-09-21T06:13:20;99016.47;;;30.03;32.45
54816;BME280;40715;55.752;37.884;2022-09-21T06:15:47;99008.94;;;31.16;30.71
54816;BME280;40715;55.752;37.884;2022-09-21T06:18:14;99023.28;;;31.48;29.00
54816;BME280;40715;55.752;37.884;2022-09-21T06:20:44;99027.22;;;30.76;29.03
54816;BME280;40715;55.752;37.884;2022-09-21T06:23:12;99029.75;;;29.49;29.63
54816;BME280;40715;55.752;37.884;2022-09-21T06:25:39;99032.63;;;29.97;30.01
54816;BME280;40715;55.752;37.884;2022-09-21T06:28:11;99037.19;;;31.53;28.87
54816;BME280;40715;55.752;37.884;2022-09-21T06:30:38;99012.72;;;32.73;26.96
54816;BME280;40715;55.752;37.884;2022-09-21T06:33:08;99033.41;;;33.97;25.73
54816;BME280;40715;55.752;37.884;2022-09-21T06:35:35;99032.16;;;34.89;24.60
54816;BME280;40715;55.752;37.884;2022-09-21T06:38:05;99033.31;;;35.55;23.18
54816;BME280;40715;55.752;37.884;2022-09-21T06:40:34;99040.59;;;36.42;22.89
54816;BME280;40715;55.752;37.884;2022-09-21T06:43:02;99032.00;;;36.70;21.49
54816;BME280;40715;55.752;37.884;2022-09-21T06:45:30;99033.94;;;35.84;21.70
54816;BME280;40715;55.752;37.884;2022-09-21T06:47:57;99035.78;;;34.48;22.29
54816;BME280;40715;55.752;37.884;2022-09-21T06:50:24;99024.66;;;33.08;23.26
54816;BME280;40715;55.752;37.884;2022-09-21T06:52:51;99034.38;;;31.99;24.19
54816;BME280;40715;55.752;37.884;2022-09-21T06:55:18;99046.34;;;31.14;25.04
54816;BME280;40715;55.752;37.884;2022-09-21T06:57:45;99033.94;;;30.57;25.79
54816;BME280;40715;55.752;37.884;2022-09-21T07:00:12;99026.69;;;30.41;25.81
54816;BME280;40715;55.752;37.884;2022-09-21T07:02:43;99028.63;;;30.63;25.58
54816;BME280;40715;55.752;37.884;2022-09-21T07:05:11;99036.06;;;31.01;25.43
54816;BME280;40715;55.752;37.884;2022-09-21T07:07:38;99036.34;;;31.14;25.29
54816;BME280;40715;55.752;37.884;2022-09-21T07:10:06;99047.16;;;31.23;25.48
54816;BME280;40715;55.752;37.884;2022-09-21T07:12:40;99045.47;;;31.22;25.10
54816;BME280;40715;55.752;37.884;2022-09-21T07:15:08;99035.22;;;31.24;25.41
54816;BME280;40715;55.752;37.884;2022-09-21T07:17:37;99049.88;;;31.23;25.36
54816;BME280;40715;55.752;37.884;2022-09-21T07:20:05;99039.94;;;31.07;24.95
54816;BME280;40715;55.752;37.884;2022-09-21T07:22:34;99024.19;;;30.94;25.55
54816;BME280;40715;55.752;37.884;2022-09-21T07:25:02;99035.28;;;30.84;25.42
54816;BME280;40715;55.752;37.884;2022-09-21T07:27:30;99029.56;;;30.48;25.77
54816;BME280;40715;55.752;37.884;2022-09-21T07:29:58;99034.22;;;31.02;25.67
54816;BME280;40715;55.752;37.884;2022-09-21T07:32:25;99029.25;;;31.28;24.92
54816;BME280;40715;55.752;37.884;2022-09-21T07:34:52;99040.75;;;31.15;25.24
54816;BME280;40715;55.752;37.884;2022-09-21T07:37:23;99033.50;;;30.99;25.01
54816;BME280;40715;55.752;37.884;2022-09-21T07:39:51;99039.03;;;30.60;25.33
54816;BME280;40715;55.752;37.884;2022-09-21T07:42:20;99027.81;;;30.15;25.67
54816;BME280;40715;55.752;37.884;2022-09-21T07:44:49;99022.84;;;29.30;25.90
54816;BME280;40715;55.752;37.884;2022-09-21T07:47:16;99037.88;;;28.48;26.50
54816;BME280;40715;55.752;37.884;2022-09-21T07:49:44;99041.94;;;27.39;27.62
54816;BME280;40715;55.752;37.884;2022-09-21T07:52:12;99044.28;;;26.42;28.80
54816;BME280;40715;55.752;37.884;2022-09-21T07:54:41;99039.16;;;25.64;29.76
54816;BME280;40715;55.752;37.884;2022-09-21T07:57:08;99038.31;;;24.95;30.44
54816;BME280;40715;55.752;37.884;2022-09-21T07:59:53;99030.59;;;24.20;31.42
54816;BME280;40715;55.752;37.884;2022-09-21T08:02:24;99033.75;;;23.73;32.76
54816;BME280;40715;55.752;37.884;2022-09-21T08:04:51;99008.03;;;23.17;33.41
54816;BME280;40715;55.752;37.884;2022-09-21T08:07:19;99021.22;;;22.88;33.84
54816;BME280;40715;55.752;37.884;2022-09-21T08:09:46;99029.75;;;22.49;34.79
54816;BME280;40715;55.752;37.884;2022-09-21T08:12:16;99020.09;;;21.79;36.07
54816;BME280;40715;55.752;37.884;2022-09-21T08:14:46;99015.63;;;21.44;36.88
54816;BME280;40715;55.752;37.884;2022-09-21T08:17:13;99019.50;;;21.75;37.04
54816;BME280;40715;55.752;37.884;2022-09-21T08:19:40;99025.03;;;23.18;36.40
54816;BME280;40715;55.752;37.884;2022-09-21T08:22:07;99038.63;;;24.51;34.44
54816;BME280;40715;55.752;37.884;2022-09-21T08:24:34;99033.03;;;24.84;33.30
54816;BME280;40715;55.752;37.884;2022-09-21T08:27:02;99026.09;;;25.01;33.02
54816;BME280;40715;55.752;37.884;2022-09-21T08:29:29;99016.75;;;25.24;32.61
54816;BME280;40715;55.752;37.884;2022-09-21T08:31:56;99025.28;;;25.39;32.46
54816;BME280;40715;55.752;37.884;2022-09-21T08:34:23;99003.28;;;24.95;32.61
54816;BME280;40715;55.752;37.884;2022-09-21T08:36:50;99012.28;;;24.55;33.12
54816;BME280;40715;55.752;37.884;2022-09-21T08:39:21;99016.47;;;24.38;33.34
54816;BME280;40715;55.752;37.884;2022-09-21T08:49:38;99007.09;;;24.63;33.95
54816;BME280;40715;55.752;37.884;2022-09-21T08:52:17;98988.75;;;24.57;33.69
54816;BME280;40715;55.752;37.884;2022-09-21T08:57:18;98995.16;;;24.75;33.35
54816;BME280;40715;55.752;37.884;2022-09-21T08:59:47;98996.59;;;24.89;33.53
54816;BME280;40715;55.752;37.884;2022-09-21T09:02:37;98997.31;;;25.01;33.70
54816;BME280;40715;55.752;37.884;2022-09-21T09:18:52;98989.66;;;23.86;33.73
54816;BME280;40715;55.752;37.884;2022-09-21T09:21:24;98983.09;;;23.48;34.20
54816;BME280;40715;55.752;37.884;2022-09-21T09:27:07;98993.91;;;23.04;35.01
54816;BME280;40715;55.752;37.884;2022-09-21T09:32:09;98987.16;;;23.09;35.33
54816;BME280;40715;55.752;37.884;2022-09-21T09:34:49;98983.34;;;23.23;35.07
54816;BME280;40715;55.752;37.884;2022-09-21T09:37:24;98990.13;;;22.74;35.37
54816;BME280;40715;55.752;37.884;2022-09-21T09:39:55;98985.75;;;22.62;35.99
54816;BME280;40715;55.752;37.884;2022-09-21T09:42:50;98989.31;;;22.62;35.50
54816;BME280;40715;55.752;37.884;2022-09-21T09:50:49;98976.69;;;22.74;35.66
54816;BME280;40715;55.752;37.884;2022-09-21T09:53:18;98976.13;;;22.70;35.30
54816;BME280;40715;55.752;37.884;2022-09-21T09:55:54;98975.03;;;22.62;36.08
54816;BME280;40715;55.752;37.884;2022-09-21T09:58:44;98975.03;;;22.94;35.65
54816;BME280;40715;55.752;37.884;2022-09-21T10:01:39;98980.72;;;23.12;35.22
54816;BME280;40715;55.752;37.884;2022-09-21T10:04:10;98984.75;;;23.06;35.59
54816;BME280;40715;55.752;37.884;2022-09-21T10:06:38;98986.66;;;23.16;35.72
54816;BME280;40715;55.752;37.884;2022-09-21T10:09:31;98982.03;;;23.18;35.34
54816;BME280;40715;55.752;37.884;2022-09-21T10:12:18;98970.44;;;22.52;35.89
54816;BME280;40715;55.752;37.884;2022-09-21T10:14:51;98982.16;;;22.29;36.43
54816;BME280;40715;55.752;37.884;2022-09-21T10:17:19;98984.00;;;22.05;36.66
54816;BME280;40715;55.752;37.884;2022-09-21T10:19:46;98978.28;;;21.99;36.90
54816;BME280;40715;55.752;37.884;2022-09-21T10:22:17;98973.41;;;21.70;37.10
54816;BME280;40715;55.752;37.884;2022-09-21T10:24:49;98966.81;;;21.51;37.38
54816;BME280;40715;55.752;37.884;2022-09-21T10:27:39;98975.97;;;21.60;37.54
54816;BME280;40715;55.752;37.884;2022-09-21T10:32:57;98967.09;;;21.71;37.21
54816;BME280;40715;55.752;37.884;2022-09-21T10:35:25;98968.06;;;21.70;37.23
54816;BME280;40715;55.752;37.884;2022-09-21T10:38:19;98961.22;;;21.54;37.22
54816;BME280;40715;55.752;37.884;2022-09-21T10:40:49;98964.91;;;21.18;37.57
54816;BME280;40715;55.752;37.884;2022-09-21T10:43:38;98958.84;;;20.43;39.16
54816;BME280;40715;55.752;37.884;2022-09-21T10:46:09;98960.22;;;20.12;39.81
54816;BME280;40715;55.752;37.884;2022-09-21T10:48:36;98955.59;;;20.27;39.82
54816;BME280;40715;55.752;37.884;2022-09-21T10:51:04;98951.94;;;20.52;39.87
54816;BME280;40715;55.752;37.884;2022-09-21T10:53:32;98959.44;;;20.84;39.76
54816;BME280;40715;55.752;37.884;2022-09-21T11:01:52;98952.66;;;20.91;39.04
54816;BME280;40715;55.752;37.884;2022-09-21T11:04:37;98953.13;;;20.96;39.36
54816;BME280;40715;55.752;37.884;2022-09-21T11:07:36;98955.22;;;20.93;39.21
54816;BME280;40715;55.752;37.884;2022-09-21T11:10:32;98952.84;;;20.77;39.29
54816;BME280;40715;55.752;37.884;2022-09-21T11:13:17;98959.59;;;20.21;40.13
54816;BME280;40715;55.752;37.884;2022-09-21T11:16:01;98944.66;;;20.06;40.45
54816;BME280;40715;55.752;37.884;2022-09-21T11:24:25;98944.97;;;20.01;40.78
54816;BME280;40715;55.752;37.884;2022-09-21T11:30:09;98944.88;;;20.03;40.73
54816;BME280;40715;55.752;37.884;2022-09-21T11:35:46;98938.91;;;20.23;40.69
54816;BME280;40715;55.752;37.884;2022-09-21T11:55:21;98934.63;;;19.58;41.40
54816;BME280;40715;55.752;37.884;2022-09-21T12:00:23;98935.19;;;19.50;41.44
54816;BME280;40715;55.752;37.884;2022-09-21T12:05:30;98934.44;;;19.35;41.39
54816;BME280;40715;55.752;37.884;2022-09-21T12:11:01;98926.84;;;19.16;42.08
54816;BME280;40715;55.752;37.884;2022-09-21T12:13:39;98914.03;;;19.21;41.97
54816;BME280;40715;55.752;37.884;2022-09-21T12:21:27;98917.88;;;19.30;42.04
54816;BME280;40715;55.752;37.884;2022-09-21T12:23:58;98882.75;;;19.10;42.01
54816;BME280;40715;55.752;37.884;2022-09-21T12:26:44;98924.19;;;19.42;42.12
54816;BME280;40715;55.752;37.884;2022-09-21T12:29:27;98915.44;;;19.40;42.07
54816;BME280;40715;55.752;37.884;2022-09-21T12:35:01;98915.63;;;19.11;42.68
54816;BME280;40715;55.752;37.884;2022-09-21T12:37:40;98918.28;;;19.11;42.91
54816;BME280;40715;55.752;37.884;2022-09-21T12:40:41;98920.66;;;19.03;43.36
54816;BME280;40715;55.752;37.884;2022-09-21T12:43:31;98913.94;;;19.10;43.52
54816;BME280;40715;55.752;37.884;2022-09-21T12:48:51;98910.69;;;18.92;44.12
54816;BME280;40715;55.752;37.884;2022-09-21T12:51:33;98925.78;;;19.06;44.39
54816;BME280;40715;55.752;37.884;2022-09-21T12:54:33;98918.19;;;19.12;44.49
54816;BME280;40715;55.752;37.884;2022-09-21T13:00:07;98920.75;;;19.01;44.49
54816;BME280;40715;55.752;37.884;2022-09-21T13:08:18;98917.56;;;19.35;44.63
54816;BME280;40715;55.752;37.884;2022-09-21T13:10:58;98918.50;;;19.46;44.47
54816;BME280;40715;55.752;37.884;2022-09-21T13:13:34;98922.91;;;19.47;44.40
54816;BME280;40715;55.752;37.884;2022-09-21T13:16:05;98916.59;;;19.48;44.12
54816;BME280;40715;55.752;37.884;2022-09-21T13:18:35;98908.03;;;19.43;44.29
54816;BME280;40715;55.752;37.884;2022-09-21T13:21:23;98907.41;;;19.40;44.36
54816;BME280;40715;55.752;37.884;2022-09-21T13:24:01;98900.78;;;19.45;44.33
54816;BME280;40715;55.752;37.884;2022-09-21T13:26:40;98904.06;;;19.62;44.33
54816;BME280;40715;55.752;37.884;2022-09-21T13:47:35;98892.88;;;19.05;45.23
54816;BME280;40715;55.752;37.884;2022-09-21T13:50:11;98895.25;;;19.23;44.93
54816;BME280;40715;55.752;37.884;2022-09-21T13:52:50;98888.91;;;19.24;44.83
54816;BME280;40715;55.752;37.884;2022-09-21T13:55:24;98897.16;;;19.21;44.68
54816;BME280;40715;55.752;37.884;2022-09-21T13:57:55;98888.72;;;19.14;44.84
54816;BME280;40715;55.752;37.884;2022-09-21T14:00:30;98887.00;;;19.26;44.68
54816;BME280;40715;55.752;37.884;2022-09-21T14:03:01;98896.84;;;19.25;44.71
54816;BME280;40715;55.752;37.884;2022-09-21T14:05:48;98892.88;;;19.18;44.81
54816;BME280;40715;55.752;37.884;2022-09-21T14:08:32;98888.63;;;19.16;44.69
54816;BME280;40715;55.752;37.884;2022-09-21T14:11:07;98887.63;;;19.04;45.01
54816;BME280;40715;55.752;37.884;2022-09-21T14:13:37;98889.78;;;18.99;45.00
54816;BME280;40715;55.752;37.884;2022-09-21T14:24:43;98890.97;;;18.54;45.99
54816;BME280;40715;55.752;37.884;2022-09-21T14:27:26;98891.69;;;18.56;46.23
54816;BME280;40715;55.752;37.884;2022-09-21T14:32:28;98889.41;;;18.37;46.56
54816;BME280;40715;55.752;37.884;2022-09-21T14:35:04;98897.47;;;18.23;46.79
54816;BME280;40715;55.752;37.884;2022-09-21T14:37:40;98883.38;;;17.93;47.35
54816;BME280;40715;55.752;37.884;2022-09-21T14:40:21;98902.38;;;17.87;47.82
54816;BME280;40715;55.752;37.884;2022-09-21T14:42:53;98887.09;;;17.62;48.29
54816;BME280;40715;55.752;37.884;2022-09-21T14:48:31;98891.03;;;17.42;48.86
54816;BME280;40715;55.752;37.884;2022-09-21T14:51:19;98896.63;;;17.37;49.20
54816;BME280;40715;55.752;37.884;2022-09-21T14:56:51;98902.41;;;17.15;49.86
54816;BME280;40715;55.752;37.884;2022-09-21T15:02:21;98907.72;;;17.01;50.53
54816;BME280;40715;55.752;37.884;2022-09-21T15:07:40;98906.03;;;16.84;51.24
54816;BME280;40715;55.752;37.884;2022-09-21T15:10:33;98909.16;;;16.76;51.14
54816;BME280;40715;55.752;37.884;2022-09-21T15:19:07;98897.19;;;16.69;51.89
54816;BME280;40715;55.752;37.884;2022-09-21T15:21:40;98906.94;;;16.68;52.20
54816;BME280;40715;55.752;37.884;2022-09-21T15:24:32;98906.00;;;16.69;51.93
54816;BME280;40715;55.752;37.884;2022-09-21T15:27:13;98913.38;;;16.64;52.38
54816;BME280;40715;55.752;37.884;2022-09-21T15:29:53;98909.97;;;16.62;52.50
54816;BME280;40715;55.752;37.884;2022-09-21T15:34:58;98906.81;;;16.55;52.78
54816;BME280;40715;55.752;37.884;2022-09-21T15:37:34;98910.00;;;16.46;52.92
54816;BME280;40715;55.752;37.884;2022-09-21T15:40:05;98906.28;;;16.49;53.05
54816;BME280;40715;55.752;37.884;2022-09-21T15:42:44;98907.91;;;16.51;53.01
54816;BME280;40715;55.752;37.884;2022-09-21T15:45:28;98910.41;;;16.54;52.79
54816;BME280;40715;55.752;37.884;2022-09-21T15:47:59;98906.81;;;16.55;52.90
54816;BME280;40715;55.752;37.884;2022-09-21T15:50:27;98899.09;;;16.51;53.06
54816;BME280;40715;55.752;37.884;2022-09-21T15:53:02;98919.16;;;16.56;53.05
54816;BME280;40715;55.752;37.884;2022-09-21T15:55:31;98920.78;;;16.59;52.73
54816;BME280;40715;55.752;37.884;2022-09-21T15:57:59;98919.34;;;16.53;53.25
54816;BME280;40715;55.752;37.884;2022-09-21T16:00:29;98923.03;;;16.51;53.19
54816;BME280;40715;55.752;37.884;2022-09-21T16:05:53;98919.34;;;16.53;53.33
54816;BME280;40715;55.752;37.884;2022-09-21T16:08:31;98941.28;;;16.57;53.29
54816;BME280;40715;55.752;37.884;2022-09-21T16:11:32;98945.66;;;16.58;53.31
54816;BME280;40715;55.752;37.884;2022-09-21T16:14:07;98959.81;;;16.59;53.15
54816;BME280;40715;55.752;37.884;2022-09-21T16:17:27;98954.25;;;16.47;53.43
54816;BME280;40715;55.752;37.884;2022-09-21T16:24:53;98955.22;;;16.46;53.26
54816;BME280;40715;55.752;37.884;2022-09-21T16:27:23;98958.28;;;16.38;53.33
54816;BME280;40715;55.752;37.884;2022-09-21T16:29:51;98962.25;;;16.31;53.29
54816;BME280;40715;55.752;37.884;2022-09-21T16:32:29;98946.28;;;16.31;53.42
54816;BME280;40715;55.752;37.884;2022-09-21T16:35:26;98961.50;;;16.29;53.35